Time;durP1;ratioP1;P1;durP2;ratioP2;P2;SDS_P1;SDS_P2;PMS_P1;PMS_P2;Temp;Humidity;BMP_temperature;BMP_pressure;BME280_temperature;BME280_humidity;BME280_pressure;Samples;Min_cycle;Max_cycle;Signal;HPM_P1;HPM_P2
2023/03/13 00:00:07;;;;;;;11.77;2.97;;;;;;;;;;5049800;28;20308;-61
2023/03/13 00:02:36;;;;;;;11.30;3.37;;;;;;;;;;5043536;28;20231;-61
2023/03/13 00:05:03;;;;;;;11.57;3.30;;;;;;;;;;5050130;28;20204;-61
2023/03/13 00:07:30;;;;;;;12.03;3.00;;;;;;;;;;5045176;28;20287;-61
2023/03/13 00:09:57;;;;;;;11.13;3.13;;;;;;;;;;5046798;28;20221;-62
2023/03/13 00:12:24;;;;;;;10.87;2.93;;;;;;;;;;5050646;28;20207;-62
2023/03/13 00:14:52;;;;;;;11.60;3.03;;;;;;;;;;5044472;28;20206;-61
2023/03/13 00:17:19;;;;;;;10.97;2.87;;;;;;;;;;5045057;28;20219;-61
2023/03/13 00:19:47;;;;;;;11.03;2.47;;;;;;;;;;5050886;28;20205;-61
2023/03/13 00:22:14;;;;;;;12.27;2.67;;;;;;;;;;5047267;28;20218;-62
2023/03/13 00:24:41;;;;;;;13.07;2.93;;;;;;;;;;5046660;28;20218;-61
2023/03/13 00:27:09;;;;;;;12.20;3.00;;;;;;;;;;5047042;28;20193;-62
2023/03/13 00:29:36;;;;;;;10.73;2.93;;;;;;;;;;5049850;28;20206;-62
2023/03/13 00:32:03;;;;;;;11.13;2.60;;;;;;;;;;5047335;28;20219;-62
2023/03/13 00:34:30;;;;;;;9.90;2.90;;;;;;;;;;5048313;28;20211;-61
2023/03/13 00:36:59;;;;;;;12.17;3.40;;;;;;;;;;5049146;28;20226;-62
2023/03/13 00:39:26;;;;;;;11.73;2.90;;;;;;;;;;5048636;28;20210;-62
2023/03/13 00:41:53;;;;;;;11.33;2.83;;;;;;;;;;5046158;28;20213;-62
2023/03/13 00:44:20;;;;;;;13.03;3.13;;;;;;;;;;5044989;28;20206;-62
2023/03/13 00:46:47;;;;;;;9.63;2.30;;;;;;;;;;5044752;28;20201;-61
2023/03/13 00:49:14;;;;;;;6.90;2.33;;;;;;;;;;5049264;28;20199;-61
2023/03/13 00:51:41;;;;;;;11.07;2.90;;;;;;;;;;5042463;28;20211;-61
2023/03/13 00:54:10;;;;;;;12.00;3.10;;;;;;;;;;5047825;28;20211;-62
2023/03/13 00:56:37;;;;;;;9.40;2.50;;;;;;;;;;5049783;28;20211;-61
2023/03/13 00:59:04;;;;;;;9.87;2.67;;;;;;;;;;5046408;28;20199;-62
2023/03/13 01:01:32;;;;;;;8.73;2.60;;;;;;;;;;5041241;28;20199;-61
2023/03/13 01:04:00;;;;;;;9.47;2.57;;;;;;;;;;5047476;28;20199;-62
2023/03/13 01:06:28;;;;;;;9.20;2.70;;;;;;;;;;5044608;28;20192;-61
2023/03/13 01:08:55;;;;;;;9.87;2.87;;;;;;;;;;5047582;28;20200;-62
2023/03/13 01:11:25;;;;;;;11.13;2.73;;;;;;;;;;5045463;28;20203;-61
2023/03/13 01:13:54;;;;;;;10.50;2.50;;;;;;;;;;5048496;28;20196;-62
2023/03/13 01:16:22;;;;;;;12.50;2.77;;;;;;;;;;5045695;28;20219;-62
2023/03/13 01:18:51;;;;;;;12.93;3.20;;;;;;;;;;5046186;28;20298;-62
2023/03/13 01:21:19;;;;;;;7.87;2.60;;;;;;;;;;5044087;28;20284;-62
2023/03/13 01:23:46;;;;;;;7.77;2.53;;;;;;;;;;5043677;28;20234;-62
2023/03/13 01:26:13;;;;;;;11.93;2.83;;;;;;;;;;5045068;28;20207;-62
2023/03/13 01:28:42;;;;;;;9.20;2.63;;;;;;;;;;5046138;28;20267;-61
2023/03/13 01:31:12;;;;;;;8.47;2.43;;;;;;;;;;5048767;28;20212;-61
2023/03/13 01:33:39;;;;;;;12.67;2.80;;;;;;;;;;5049969;28;20225;-61
2023/03/13 01:36:07;;;;;;;9.07;2.50;;;;;;;;;;5048282;28;20199;-62
2023/03/13 01:38:34;;;;;;;8.27;2.63;;;;;;;;;;5047292;28;20223;-62
2023/03/13 01:41:01;;;;;;;10.50;2.90;;;;;;;;;;5047630;28;20207;-61
2023/03/13 01:43:30;;;;;;;8.63;2.53;;;;;;;;;;5047265;28;20199;-61
2023/03/13 01:45:59;;;;;;;6.20;2.20;;;;;;;;;;5045462;28;20199;-62
2023/03/13 01:48:29;;;;;;;6.43;2.30;;;;;;;;;;5045138;28;20199;-61
2023/03/13 01:50:57;;;;;;;6.63;2.10;;;;;;;;;;5045668;28;20214;-62
2023/03/13 01:53:25;;;;;;;8.53;2.23;;;;;;;;;;5044218;28;20199;-62
2023/03/13 01:55:52;;;;;;;5.43;1.80;;;;;;;;;;5047084;28;20204;-62
2023/03/13 01:58:19;;;;;;;6.83;1.70;;;;;;;;;;5044507;28;20219;-61
2023/03/13 02:00:47;;;;;;;7.10;2.10;;;;;;;;;;5043648;28;20204;-62
2023/03/13 02:03:18;;;;;;;7.37;2.30;;;;;;;;;;5042458;28;20290;-61
2023/03/13 02:05:45;;;;;;;6.70;2.30;;;;;;;;;;5045854;28;20209;-62
2023/03/13 02:08:17;;;;;;;6.77;1.90;;;;;;;;;;5045478;28;20195;-62
2023/03/13 02:10:49;;;;;;;4.50;2.07;;;;;;;;;;5045687;28;20205;-62
2023/03/13 02:13:18;;;;;;;3.50;1.53;;;;;;;;;;5047089;28;20203;-62
2023/03/13 02:15:45;;;;;;;4.63;1.60;;;;;;;;;;5046335;28;20206;-61
2023/03/13 02:18:13;;;;;;;5.00;1.47;;;;;;;;;;5046531;28;20315;-61
2023/03/13 02:20:41;;;;;;;4.60;1.40;;;;;;;;;;5044883;28;20204;-62
2023/03/13 02:23:11;;;;;;;2.10;1.23;;;;;;;;;;5043803;28;20224;-62
2023/03/13 02:25:43;;;;;;;5.97;1.73;;;;;;;;;;5045972;28;20206;-62
2023/03/13 02:28:13;;;;;;;5.13;1.50;;;;;;;;;;5046234;28;20200;-61
2023/03/13 02:30:42;;;;;;;3.57;1.17;;;;;;;;;;5042043;28;20199;-62
2023/03/13 02:33:11;;;;;;;2.27;1.50;;;;;;;;;;5044678;28;20204;-61
2023/03/13 02:35:38;;;;;;;4.50;1.50;;;;;;;;;;5043702;28;20209;-61
2023/03/13 02:38:07;;;;;;;2.30;1.30;;;;;;;;;;5041955;28;20222;-61
2023/03/13 02:40:36;;;;;;;2.43;1.27;;;;;;;;;;5047843;28;20235;-64
2023/03/13 02:43:06;;;;;;;3.77;1.97;;;;;;;;;;5048613;28;20298;-64
2023/03/13 02:45:33;;;;;;;2.60;2.33;;;;;;;;;;5050874;28;20203;-63
2023/03/13 02:48:00;;;;;;;3.53;2.70;;;;;;;;;;5051002;28;20282;-61
2023/03/13 02:50:27;;;;;;;3.10;2.40;;;;;;;;;;5050885;28;20196;-61
2023/03/13 02:52:56;;;;;;;3.63;2.77;;;;;;;;;;5050281;28;20214;-61
2023/03/13 02:55:25;;;;;;;3.27;2.50;;;;;;;;;;5051304;28;20337;-61
2023/03/13 02:57:52;;;;;;;3.97;2.13;;;;;;;;;;5043820;28;20226;-61
2023/03/13 03:00:25;;;;;;;2.43;2.00;;;;;;;;;;5051748;28;20210;-62
2023/03/13 03:02:52;;;;;;;2.93;2.70;;;;;;;;;;5050587;28;20215;-63
2023/03/13 03:05:20;;;;;;;2.13;1.70;;;;;;;;;;5050902;28;20318;-62
2023/03/13 03:07:48;;;;;;;2.63;2.20;;;;;;;;;;5041293;28;20295;-62
2023/03/13 03:10:15;;;;;;;2.33;2.13;;;;;;;;;;5046427;28;20291;-62
2023/03/13 03:12:42;;;;;;;2.20;2.00;;;;;;;;;;5044469;28;20286;-62
2023/03/13 03:15:10;;;;;;;3.33;3.03;;;;;;;;;;5049261;28;20206;-61
2023/03/13 03:17:45;;;;;;;4.80;3.10;;;;;;;;;;5050183;28;20215;-62
2023/03/13 03:20:12;;;;;;;4.40;3.17;;;;;;;;;;5048521;28;20195;-62
2023/03/13 03:22:40;;;;;;;4.83;3.80;;;;;;;;;;5050271;28;20206;-62
2023/03/13 03:25:07;;;;;;;4.57;3.10;;;;;;;;;;5048813;28;20211;-61
2023/03/13 03:27:35;;;;;;;3.27;2.97;;;;;;;;;;5048781;28;20192;-62
2023/03/13 03:30:02;;;;;;;3.70;2.40;;;;;;;;;;5045219;28;20205;-61
2023/03/13 03:32:29;;;;;;;3.23;2.90;;;;;;;;;;5045411;28;20207;-68
2023/03/13 03:34:58;;;;;;;2.83;2.27;;;;;;;;;;5047322;28;20234;-68
2023/03/13 03:37:25;;;;;;;3.40;2.60;;;;;;;;;;5049409;28;20226;-68
2023/03/13 03:39:52;;;;;;;3.13;2.17;;;;;;;;;;5046498;28;20200;-68
2023/03/13 03:42:19;;;;;;;3.03;2.47;;;;;;;;;;5044043;28;20326;-68
2023/03/13 03:44:47;;;;;;;3.57;2.13;;;;;;;;;;5047444;28;20197;-69
2023/03/13 03:47:14;;;;;;;2.00;1.90;;;;;;;;;;5047068;28;20214;-68
2023/03/13 03:49:41;;;;;;;4.47;2.30;;;;;;;;;;5044789;28;20204;-68
2023/03/13 03:52:09;;;;;;;3.00;2.70;;;;;;;;;;5043491;28;20221;-68
2023/03/13 03:54:36;;;;;;;4.13;3.13;;;;;;;;;;5050709;28;20209;-68
2023/03/13 03:57:04;;;;;;;4.23;3.60;;;;;;;;;;5050213;28;20209;-69
2023/03/13 03:59:31;;;;;;;5.40;3.60;;;;;;;;;;5051239;28;20211;-68
2023/03/13 04:01:58;;;;;;;4.67;3.60;;;;;;;;;;5049166;28;20207;-68
2023/03/13 04:04:25;;;;;;;4.57;3.80;;;;;;;;;;5049886;28;20214;-68
2023/03/13 04:06:52;;;;;;;4.47;3.80;;;;;;;;;;5045905;28;20209;-68
2023/03/13 04:09:21;;;;;;;4.57;3.60;;;;;;;;;;5048812;28;20200;-68
2023/03/13 04:11:48;;;;;;;4.73;3.83;;;;;;;;;;5046439;28;20209;-68
2023/03/13 04:14:15;;;;;;;3.30;3.00;;;;;;;;;;5046687;28;20203;-68
2023/03/13 04:16:42;;;;;;;4.40;3.53;;;;;;;;;;5048110;28;20204;-68
2023/03/13 04:19:10;;;;;;;2.87;2.60;;;;;;;;;;5045931;28;20220;-68
2023/03/13 04:21:38;;;;;;;3.00;2.77;;;;;;;;;;5044934;28;20204;-68
2023/03/13 04:24:05;;;;;;;3.73;2.77;;;;;;;;;;5048812;28;20218;-68
2023/03/13 04:26:34;;;;;;;3.47;3.17;;;;;;;;;;5050746;28;20218;-68
2023/03/13 04:29:01;;;;;;;5.93;3.87;;;;;;;;;;5048159;28;20195;-68
2023/03/13 04:31:28;;;;;;;5.07;4.37;;;;;;;;;;5046524;28;20207;-68
2023/03/13 04:33:55;;;;;;;6.03;4.47;;;;;;;;;;5047876;28;20211;-68
2023/03/13 04:36:22;;;;;;;9.67;5.77;;;;;;;;;;5044263;28;20227;-70
2023/03/13 04:38:50;;;;;;;8.80;5.70;;;;;;;;;;5046547;28;20222;-68
2023/03/13 04:41:17;;;;;;;4.27;3.80;;;;;;;;;;5043923;28;20221;-68
2023/03/13 04:43:45;;;;;;;5.13;4.47;;;;;;;;;;5046912;28;20218;-67
2023/03/13 04:46:12;;;;;;;4.07;3.47;;;;;;;;;;5041878;28;20294;-68
2023/03/13 04:48:39;;;;;;;4.43;3.70;;;;;;;;;;5048213;28;20200;-68
2023/03/13 04:51:07;;;;;;;4.63;3.70;;;;;;;;;;5041574;28;20214;-68
2023/03/13 04:53:34;;;;;;;3.83;3.50;;;;;;;;;;5037598;28;20229;-69
2023/03/13 04:56:01;;;;;;;5.13;3.37;;;;;;;;;;5043530;28;20206;-68
2023/03/13 04:58:28;;;;;;;5.07;3.50;;;;;;;;;;5037644;28;20237;-69
2023/03/13 05:00:57;;;;;;;4.13;3.60;;;;;;;;;;5037587;28;20203;-67
2023/03/13 05:03:24;;;;;;;3.70;3.03;;;;;;;;;;5040907;28;20219;-68
2023/03/13 05:05:51;;;;;;;3.87;2.80;;;;;;;;;;5033949;28;20204;-68
2023/03/13 05:08:18;;;;;;;3.50;2.80;;;;;;;;;;5034992;28;20210;-68
2023/03/13 05:10:45;;;;;;;4.47;2.93;;;;;;;;;;5034515;28;20294;-68
2023/03/13 05:13:12;;;;;;;3.67;3.17;;;;;;;;;;5037987;28;20223;-67
2023/03/13 05:15:39;;;;;;;3.37;2.97;;;;;;;;;;5038030;28;20208;-68
2023/03/13 05:18:08;;;;;;;3.97;2.93;;;;;;;;;;5046901;28;20225;-67
2023/03/13 05:20:35;;;;;;;3.83;3.10;;;;;;;;;;5044275;28;20207;-68
2023/03/13 05:23:02;;;;;;;4.07;3.00;;;;;;;;;;5046087;28;20215;-67
2023/03/13 05:25:29;;;;;;;4.47;3.50;;;;;;;;;;5047134;28;20216;-68
2023/03/13 05:27:56;;;;;;;4.27;3.87;;;;;;;;;;5040670;28;20204;-68
2023/03/13 05:30:23;;;;;;;4.33;3.40;;;;;;;;;;5043565;28;20202;-67
2023/03/13 05:32:51;;;;;;;3.83;3.30;;;;;;;;;;5044251;28;20200;-67
2023/03/13 05:35:19;;;;;;;3.30;3.00;;;;;;;;;;5046226;28;20196;-67
2023/03/13 05:37:46;;;;;;;4.13;3.07;;;;;;;;;;5044999;28;20207;-67
2023/03/13 05:40:14;;;;;;;4.83;3.20;;;;;;;;;;5043325;28;20203;-68
2023/03/13 05:42:41;;;;;;;3.80;3.30;;;;;;;;;;5036588;28;20232;-67
2023/03/13 05:45:09;;;;;;;3.30;3.00;;;;;;;;;;5045335;28;20208;-67
2023/03/13 05:47:37;;;;;;;6.93;3.10;;;;;;;;;;5039738;28;20207;-67
2023/03/13 05:50:05;;;;;;;3.30;2.87;;;;;;;;;;5045414;28;20203;-68
2023/03/13 05:52:33;;;;;;;3.17;2.83;;;;;;;;;;5042776;28;20208;-67
2023/03/13 05:55:00;;;;;;;6.40;3.40;;;;;;;;;;5045234;28;20203;-68
2023/03/13 05:57:30;;;;;;;3.33;2.70;;;;;;;;;;5046172;28;20203;-68
2023/03/13 05:59:58;;;;;;;4.30;2.93;;;;;;;;;;5041344;28;20228;-67
2023/03/13 06:02:25;;;;;;;3.70;3.07;;;;;;;;;;5041195;28;20210;-68
2023/03/13 06:04:52;;;;;;;3.87;2.70;;;;;;;;;;5044523;28;20214;-67
2023/03/13 06:07:19;;;;;;;3.77;2.53;;;;;;;;;;5044023;28;20204;-68
2023/03/13 06:09:48;;;;;;;3.13;2.67;;;;;;;;;;5044408;28;20200;-67
2023/03/13 06:12:15;;;;;;;3.63;2.70;;;;;;;;;;5045805;28;20209;-68
2023/03/13 06:14:42;;;;;;;3.60;2.97;;;;;;;;;;5044636;28;20211;-68
2023/03/13 06:17:09;;;;;;;3.10;2.80;;;;;;;;;;5045421;28;20210;-67
2023/03/13 06:19:36;;;;;;;4.47;3.13;;;;;;;;;;5036234;28;20227;-68
2023/03/13 06:22:03;;;;;;;4.63;3.07;;;;;;;;;;5046976;28;20214;-67
2023/03/13 06:24:31;;;;;;;4.33;3.37;;;;;;;;;;5040993;28;20211;-67
2023/03/13 06:26:59;;;;;;;3.93;3.33;;;;;;;;;;5049354;28;20221;-67
2023/03/13 06:29:27;;;;;;;3.27;2.97;;;;;;;;;;5045086;28;20193;-68
2023/03/13 06:31:54;;;;;;;5.70;3.43;;;;;;;;;;5038708;28;20404;-68
2023/03/13 06:34:21;;;;;;;3.77;3.23;;;;;;;;;;5047932;28;20196;-67
2023/03/13 06:36:48;;;;;;;6.37;3.47;;;;;;;;;;5044681;28;20298;-68
2023/03/13 06:39:15;;;;;;;3.50;3.13;;;;;;;;;;5044738;28;20237;-67
2023/03/13 06:41:42;;;;;;;5.17;3.17;;;;;;;;;;5045525;28;20213;-67
2023/03/13 06:44:11;;;;;;;5.93;3.40;;;;;;;;;;5042844;28;20203;-68
2023/03/13 06:46:38;;;;;;;6.23;3.60;;;;;;;;;;5048032;28;20218;-67
2023/03/13 06:49:05;;;;;;;5.20;3.80;;;;;;;;;;5048226;28;20217;-67
2023/03/13 06:51:33;;;;;;;6.20;3.33;;;;;;;;;;5045814;28;20208;-67
2023/03/13 06:54:00;;;;;;;5.27;3.50;;;;;;;;;;5042720;28;20215;-67
2023/03/13 06:56:27;;;;;;;4.33;3.10;;;;;;;;;;5045982;28;20294;-67
2023/03/13 06:58:54;;;;;;;5.47;3.47;;;;;;;;;;5040045;28;20219;-67
2023/03/13 07:01:23;;;;;;;5.47;3.53;;;;;;;;;;5046347;28;20203;-67
2023/03/13 07:03:50;;;;;;;4.40;3.73;;;;;;;;;;5043986;28;20200;-67
2023/03/13 07:06:17;;;;;;;5.73;3.60;;;;;;;;;;5033438;28;20196;-67
2023/03/13 07:08:45;;;;;;;4.87;3.63;;;;;;;;;;5038333;28;20245;-68
2023/03/13 07:11:13;;;;;;;6.33;3.80;;;;;;;;;;5042989;28;20204;-67
2023/03/13 07:13:41;;;;;;;8.63;4.13;;;;;;;;;;5042562;28;20204;-67
2023/03/13 07:16:09;;;;;;;4.37;3.43;;;;;;;;;;5046252;28;20208;-68
2023/03/13 07:18:40;;;;;;;5.97;3.80;;;;;;;;;;5044700;28;20217;-67
2023/03/13 07:21:07;;;;;;;5.67;4.03;;;;;;;;;;5044835;28;20271;-67
2023/03/13 07:23:35;;;;;;;6.87;3.70;;;;;;;;;;5048096;28;20204;-67
2023/03/13 07:26:03;;;;;;;3.97;3.53;;;;;;;;;;5043014;28;20221;-68
2023/03/13 07:28:30;;;;;;;4.97;3.50;;;;;;;;;;5047584;28;20229;-67
2023/03/13 07:31:04;;;;;;;3.60;3.30;;;;;;;;;;5044112;28;20208;-67
2023/03/13 07:33:31;;;;;;;5.20;3.33;;;;;;;;;;5048155;28;20227;-67
2023/03/13 07:35:59;;;;;;;6.73;3.70;;;;;;;;;;5050158;28;20200;-67
2023/03/13 07:38:26;;;;;;;6.07;3.70;;;;;;;;;;5046563;28;20192;-67
2023/03/13 07:40:54;;;;;;;6.67;3.37;;;;;;;;;;5044419;28;20196;-67
2023/03/13 07:43:22;;;;;;;6.03;3.40;;;;;;;;;;5040324;28;20204;-67
2023/03/13 07:45:56;;;;;;;6.80;3.27;;;;;;;;;;5045550;28;20208;-67
2023/03/13 07:48:23;;;;;;;3.80;2.77;;;;;;;;;;5050110;28;20200;-67
2023/03/13 07:50:51;;;;;;;5.00;3.20;;;;;;;;;;5040103;28;20208;-68
2023/03/13 07:53:20;;;;;;;4.77;3.00;;;;;;;;;;5047084;28;20196;-67
2023/03/13 07:55:54;;;;;;;4.73;3.20;;;;;;;;;;5047630;28;20203;-67
2023/03/13 07:58:21;;;;;;;4.90;3.43;;;;;;;;;;5042148;28;20202;-68
2023/03/13 08:00:49;;;;;;;5.23;3.33;;;;;;;;;;5048874;28;20223;-67
2023/03/13 08:03:16;;;;;;;6.73;3.60;;;;;;;;;;5047711;28;20204;-67
2023/03/13 08:05:43;;;;;;;6.23;3.53;;;;;;;;;;5048289;28;20204;-68
2023/03/13 08:08:10;;;;;;;5.07;3.20;;;;;;;;;;5049563;28;20200;-67
2023/03/13 08:10:39;;;;;;;5.38;3.30;;;;;;;;;;5041842;28;20203;-67
2023/03/13 08:13:06;;;;;;;6.00;3.20;;;;;;;;;;5040034;28;20200;-67
2023/03/13 08:15:33;;;;;;;4.68;3.50;;;;;;;;;;5039193;28;20235;-68
2023/03/13 08:18:00;;;;;;;5.10;3.20;;;;;;;;;;5042466;28;20210;-67
2023/03/13 08:20:27;;;;;;;6.13;3.38;;;;;;;;;;5042488;28;20219;-67
2023/03/13 08:22:55;;;;;;;5.20;3.83;;;;;;;;;;5043971;28;20200;-67
2023/03/13 08:25:23;;;;;;;9.27;3.80;;;;;;;;;;5043842;28;20215;-67
2023/03/13 08:27:52;;;;;;;6.90;3.63;;;;;;;;;;5044713;28;20218;-67
2023/03/13 08:30:19;;;;;;;9.23;3.93;;;;;;;;;;5045031;28;20196;-67
2023/03/13 08:32:46;;;;;;;7.20;3.97;;;;;;;;;;5045995;28;20258;-67
2023/03/13 08:35:13;;;;;;;4.47;3.60;;;;;;;;;;5046634;28;20208;-67
2023/03/13 08:37:40;;;;;;;5.32;3.72;;;;;;;;;;5043339;28;20238;-67
2023/03/13 08:40:10;;;;;;;4.77;3.60;;;;;;;;;;5046123;28;20223;-67
2023/03/13 08:42:38;;;;;;;3.83;3.47;;;;;;;;;;5047851;28;20207;-67
2023/03/13 08:45:07;;;;;;;6.87;3.80;;;;;;;;;;5045731;28;20296;-68
2023/03/13 08:47:34;;;;;;;4.07;3.55;;;;;;;;;;5039235;28;20208;-68
2023/03/13 08:50:01;;;;;;;4.63;3.60;;;;;;;;;;5045909;28;20203;-67
2023/03/13 08:52:28;;;;;;;8.10;3.50;;;;;;;;;;5043789;28;20204;-67
2023/03/13 08:54:55;;;;;;;7.20;3.50;;;;;;;;;;5046003;28;20230;-67
2023/03/13 08:57:23;;;;;;;6.23;3.90;;;;;;;;;;5039316;28;20208;-68
2023/03/13 08:59:51;;;;;;;7.05;3.92;;;;;;;;;;5045432;28;20220;-67
2023/03/13 09:02:20;;;;;;;6.57;4.27;;;;;;;;;;5047682;28;20230;-67
2023/03/13 09:04:48;;;;;;;4.25;3.47;;;;;;;;;;5046076;28;20204;-67
2023/03/13 09:07:15;;;;;;;6.47;3.70;;;;;;;;;;5046065;28;20260;-67
2023/03/13 09:09:42;;;;;;;8.87;3.97;;;;;;;;;;5046881;28;20207;-68
2023/03/13 09:12:10;;;;;;;5.67;3.57;;;;;;;;;;5047904;28;20214;-67
2023/03/13 09:14:37;;;;;;;4.97;3.60;;;;;;;;;;5045709;28;20207;-67
2023/03/13 09:17:04;;;;;;;6.90;3.67;;;;;;;;;;5045605;28;20290;-67
2023/03/13 09:19:33;;;;;;;5.80;3.90;;;;;;;;;;5048905;28;20215;-67
2023/03/13 09:22:00;;;;;;;5.90;3.97;;;;;;;;;;5045645;28;20207;-67
2023/03/13 09:24:27;;;;;;;5.80;3.67;;;;;;;;;;5045096;28;20227;-67
2023/03/13 09:26:54;;;;;;;7.73;3.57;;;;;;;;;;5046078;28;20263;-68
2023/03/13 09:29:21;;;;;;;4.97;4.47;;;;;;;;;;5052018;28;20202;-67
2023/03/13 09:31:49;;;;;;;5.18;3.17;;;;;;;;;;5046610;28;20212;-67
2023/03/13 09:34:16;;;;;;;7.50;4.17;;;;;;;;;;5045088;28;20203;-68
2023/03/13 09:36:46;;;;;;;6.00;3.70;;;;;;;;;;5052268;28;20199;-68
2023/03/13 09:39:13;;;;;;;6.43;3.83;;;;;;;;;;5050565;28;20234;-68
2023/03/13 09:41:43;;;;;;;5.93;3.60;;;;;;;;;;5051559;28;20200;-67
2023/03/13 09:44:14;;;;;;;5.15;3.20;;;;;;;;;;5043171;28;20204;-68
2023/03/13 09:46:44;;;;;;;6.78;3.45;;;;;;;;;;5047176;28;20207;-69
2023/03/13 09:49:18;;;;;;;5.63;3.53;;;;;;;;;;5043665;28;20202;-68
2023/03/13 09:51:49;;;;;;;8.30;3.28;;;;;;;;;;5046355;28;20207;-68
2023/03/13 09:54:22;;;;;;;4.55;3.10;;;;;;;;;;5046402;28;20202;-67
2023/03/13 09:56:53;;;;;;;6.30;2.90;;;;;;;;;;5050208;28;20287;-67
2023/03/13 09:59:23;;;;;;;5.85;2.95;;;;;;;;;;5044447;28;20324;-67
2023/03/13 10:01:50;;;;;;;4.10;3.22;;;;;;;;;;5044708;28;20203;-67
2023/03/13 10:04:27;;;;;;;5.22;3.20;;;;;;;;;;5046006;28;20207;-67
2023/03/13 10:06:55;;;;;;;4.07;3.03;;;;;;;;;;5044136;28;20199;-67
2023/03/13 10:09:24;;;;;;;4.75;2.60;;;;;;;;;;5046247;28;20286;-68
2023/03/13 10:11:54;;;;;;;5.13;2.65;;;;;;;;;;5041843;28;20208;-67
2023/03/13 10:14:23;;;;;;;5.32;2.75;;;;;;;;;;5042026;28;20203;-67
2023/03/13 10:16:54;;;;;;;4.35;3.13;;;;;;;;;;5044570;28;20207;-67
2023/03/13 10:19:24;;;;;;;4.88;2.95;;;;;;;;;;5041639;28;20346;-67
2023/03/13 10:21:54;;;;;;;4.40;3.00;;;;;;;;;;5046585;28;20211;-67
2023/03/13 10:24:27;;;;;;;5.50;3.13;;;;;;;;;;5047335;28;20211;-67
2023/03/13 10:26:56;;;;;;;3.30;2.80;;;;;;;;;;5043639;28;20195;-67
2023/03/13 10:29:25;;;;;;;3.47;2.90;;;;;;;;;;5044836;28;20221;-67
2023/03/13 10:31:56;;;;;;;3.33;2.55;;;;;;;;;;5038561;28;20212;-68
2023/03/13 10:34:24;;;;;;;3.75;2.78;;;;;;;;;;5047553;28;20257;-67
2023/03/13 10:36:55;;;;;;;4.07;2.67;;;;;;;;;;5044264;28;20204;-67
2023/03/13 10:39:24;;;;;;;3.97;2.80;;;;;;;;;;5041888;28;20207;-67
2023/03/13 10:41:52;;;;;;;3.92;2.70;;;;;;;;;;5048104;28;20203;-67
2023/03/13 10:44:20;;;;;;;3.45;2.97;;;;;;;;;;5038399;28;20203;-67
2023/03/13 10:46:48;;;;;;;5.13;3.22;;;;;;;;;;5045245;28;20211;-68
2023/03/13 10:49:16;;;;;;;4.53;2.75;;;;;;;;;;5040699;28;20203;-67
2023/03/13 10:51:47;;;;;;;6.25;3.13;;;;;;;;;;5046246;28;20210;-67
2023/03/13 10:54:15;;;;;;;5.05;3.08;;;;;;;;;;5048930;28;20222;-67
2023/03/13 10:56:44;;;;;;;4.90;2.53;;;;;;;;;;5046971;28;20196;-67
2023/03/13 10:59:22;;;;;;;4.63;3.03;;;;;;;;;;5044349;28;20203;-67
2023/03/13 11:01:51;;;;;;;4.25;2.80;;;;;;;;;;5047285;28;20206;-67
2023/03/13 11:04:29;;;;;;;5.85;2.90;;;;;;;;;;5039854;28;20210;-68
2023/03/13 11:06:59;;;;;;;4.28;2.80;;;;;;;;;;5048519;28;20207;-67
2023/03/13 11:09:27;;;;;;;3.47;2.72;;;;;;;;;;5048031;28;20196;-67
2023/03/13 11:11:56;;;;;;;4.00;2.83;;;;;;;;;;5048501;28;20227;-67
2023/03/13 11:14:24;;;;;;;2.67;2.42;;;;;;;;;;5046205;28;20216;-67
2023/03/13 11:16:52;;;;;;;4.65;2.65;;;;;;;;;;5047032;28;20199;-67
2023/03/13 11:19:30;;;;;;;7.63;2.80;;;;;;;;;;5046518;28;20235;-67
2023/03/13 11:22:03;;;;;;;4.25;2.85;;;;;;;;;;5048221;28;20207;-67
2023/03/13 11:24:33;;;;;;;3.85;2.80;;;;;;;;;;5045929;28;20307;-67
2023/03/13 11:27:06;;;;;;;4.55;2.72;;;;;;;;;;5048918;28;20195;-67
2023/03/13 11:29:40;;;;;;;3.50;2.42;;;;;;;;;;5050449;28;20213;-68
2023/03/13 11:32:13;;;;;;;2.60;2.40;;;;;;;;;;5047960;28;20203;-67
2023/03/13 11:34:42;;;;;;;4.00;2.28;;;;;;;;;;5049492;28;20266;-67
2023/03/13 11:37:12;;;;;;;2.80;2.50;;;;;;;;;;5045485;28;20200;-67
2023/03/13 11:39:44;;;;;;;3.10;2.63;;;;;;;;;;5044520;28;20204;-67
2023/03/13 11:42:19;;;;;;;3.30;2.70;;;;;;;;;;5046758;28;20206;-67
2023/03/13 11:44:53;;;;;;;5.35;2.63;;;;;;;;;;5044181;28;20306;-67
2023/03/13 11:47:45;;;;;;;5.25;3.10;;;;;;;;;;5043030;28;20200;-67
2023/03/13 11:50:23;;;;;;;2.90;2.60;;;;;;;;;;5026965;28;20213;-67
2023/03/13 11:52:59;;;;;;;3.53;2.78;;;;;;;;;;5046296;28;20203;-67
2023/03/13 11:55:46;;;;;;;4.15;2.80;;;;;;;;;;5045714;28;20203;-67
2023/03/13 11:58:23;;;;;;;4.65;2.80;;;;;;;;;;5045184;28;20204;-67
2023/03/13 12:00:54;;;;;;;4.75;2.88;;;;;;;;;;5044626;28;20226;-67
2023/03/13 12:03:27;;;;;;;4.35;2.88;;;;;;;;;;5044577;28;20201;-67
2023/03/13 12:05:56;;;;;;;3.83;3.40;;;;;;;;;;5048158;28;20206;-67
2023/03/13 12:08:27;;;;;;;5.72;3.40;;;;;;;;;;5047541;28;20207;-67
2023/03/13 12:11:02;;;;;;;4.47;3.53;;;;;;;;;;5048315;28;20195;-67
2023/03/13 12:13:32;;;;;;;6.95;3.72;;;;;;;;;;5043903;28;20203;-67
2023/03/13 12:16:01;;;;;;;3.88;3.30;;;;;;;;;;5044335;28;20322;-67
2023/03/13 12:18:31;;;;;;;5.50;3.28;;;;;;;;;;5047262;28;20204;-67
2023/03/13 12:21:01;;;;;;;5.97;3.30;;;;;;;;;;5045116;28;20225;-67
2023/03/13 12:23:31;;;;;;;5.13;3.30;;;;;;;;;;5048883;28;20204;-67
2023/03/13 12:26:01;;;;;;;4.22;3.35;;;;;;;;;;5044362;28;20211;-67
2023/03/13 12:28:32;;;;;;;8.50;3.30;;;;;;;;;;5039919;28;20219;-67
2023/03/13 12:31:03;;;;;;;4.60;2.92;;;;;;;;;;5045277;28;20218;-67
2023/03/13 12:33:33;;;;;;;5.18;2.72;;;;;;;;;;5041655;28;20208;-61
2023/03/13 12:36:03;;;;;;;3.72;2.85;;;;;;;;;;5045092;28;20203;-61
2023/03/13 12:38:33;;;;;;;4.45;2.83;;;;;;;;;;5045829;28;20199;-61
2023/03/13 12:41:05;;;;;;;4.18;2.53;;;;;;;;;;5040674;28;20219;-61
2023/03/13 12:43:34;;;;;;;2.70;2.45;;;;;;;;;;5043939;28;20207;-61
2023/03/13 12:46:07;;;;;;;3.53;2.20;;;;;;;;;;5047353;28;20199;-61
2023/03/13 12:48:49;;;;;;;3.30;2.63;;;;;;;;;;5041629;28;20214;-61
2023/03/13 12:51:22;;;;;;;4.45;2.85;;;;;;;;;;5042529;28;20209;-61
2023/03/13 12:54:08;;;;;;;6.90;3.28;;;;;;;;;;5045275;28;20200;-61
2023/03/13 12:56:41;;;;;;;6.43;3.38;;;;;;;;;;5043276;28;20211;-61
2023/03/13 12:59:11;;;;;;;4.55;3.50;;;;;;;;;;5045133;28;20214;-61
2023/03/13 13:01:42;;;;;;;4.18;3.40;;;;;;;;;;5046912;28;20223;-61
2023/03/13 13:04:12;;;;;;;3.80;3.20;;;;;;;;;;5044800;28;20196;-61
2023/03/13 13:06:53;;;;;;;3.20;2.90;;;;;;;;;;5045919;28;20210;-61
2023/03/13 13:09:23;;;;;;;4.43;3.20;;;;;;;;;;5041632;28;20196;-60
2023/03/13 13:11:51;;;;;;;3.03;2.70;;;;;;;;;;5044165;28;20302;-60
2023/03/13 13:14:37;;;;;;;4.20;2.75;;;;;;;;;;5042807;28;20263;-60
2023/03/13 13:17:16;;;;;;;4.32;3.00;;;;;;;;;;5047537;28;20210;-61
2023/03/13 13:19:44;;;;;;;4.47;2.80;;;;;;;;;;5047882;28;20207;-60
2023/03/13 13:22:32;;;;;;;4.38;3.20;;;;;;;;;;5044916;28;20227;-61
2023/03/13 13:24:59;;;;;;;3.42;3.08;;;;;;;;;;5044443;28;20214;-61
2023/03/13 13:27:46;;;;;;;4.75;3.10;;;;;;;;;;5045566;28;20195;-60
2023/03/13 13:30:28;;;;;;;3.63;3.33;;;;;;;;;;5047371;28;20199;-60
2023/03/13 13:32:56;;;;;;;2.80;2.40;;;;;;;;;;5046018;28;20292;-61
2023/03/13 13:35:26;;;;;;;4.20;2.65;;;;;;;;;;5041121;28;20196;-60
2023/03/13 13:37:54;;;;;;;3.78;2.30;;;;;;;;;;5045336;28;20286;-60
2023/03/13 13:40:23;;;;;;;5.53;2.50;;;;;;;;;;5050032;28;20203;-61
2023/03/13 13:42:52;;;;;;;4.07;2.20;;;;;;;;;;5040204;28;20215;-61
2023/03/13 13:45:24;;;;;;;4.78;2.70;;;;;;;;;;5048876;28;20204;-61
2023/03/13 13:47:51;;;;;;;3.90;2.30;;;;;;;;;;5047459;28;20208;-61
2023/03/13 13:50:21;;;;;;;4.07;2.35;;;;;;;;;;5045105;28;20286;-61
2023/03/13 13:52:48;;;;;;;2.50;2.30;;;;;;;;;;5044350;28;20205;-61
2023/03/13 13:55:42;;;;;;;3.92;2.40;;;;;;;;;;5047046;28;20210;-61
2023/03/13 13:58:12;;;;;;;3.25;2.30;;;;;;;;;;5044290;28;20199;-61
2023/03/13 14:00:42;;;;;;;2.83;2.60;;;;;;;;;;5042598;28;20223;-61
2023/03/13 14:03:17;;;;;;;3.03;2.20;;;;;;;;;;5044082;28;20207;-61
2023/03/13 14:05:47;;;;;;;2.83;2.28;;;;;;;;;;5043432;28;20207;-60
2023/03/13 14:08:17;;;;;;;3.15;2.53;;;;;;;;;;5039203;28;20224;-61
2023/03/13 14:10:46;;;;;;;6.88;2.80;;;;;;;;;;5042719;28;20286;-61
2023/03/13 14:13:15;;;;;;;3.75;2.70;;;;;;;;;;5041397;28;20200;-60
2023/03/13 14:15:43;;;;;;;2.88;2.67;;;;;;;;;;5042393;28;20207;-60
2023/03/13 14:18:12;;;;;;;3.42;2.88;;;;;;;;;;5045819;28;20210;-60
2023/03/13 14:20:39;;;;;;;3.40;2.97;;;;;;;;;;5046196;28;20219;-61
2023/03/13 14:23:09;;;;;;;3.40;2.72;;;;;;;;;;5042849;28;20211;-60
2023/03/13 14:25:46;;;;;;;3.30;2.70;;;;;;;;;;5046578;28;20291;-61
2023/03/13 14:28:17;;;;;;;2.30;1.80;;;;;;;;;;5048235;28;20305;-61
2023/03/13 14:30:45;;;;;;;2.38;2.10;;;;;;;;;;5043590;28;20203;-61
2023/03/13 14:33:12;;;;;;;1.77;1.60;;;;;;;;;;5044177;28;20287;-61
2023/03/13 14:35:40;;;;;;;2.03;1.83;;;;;;;;;;5046365;28;20208;-61
2023/03/13 14:38:08;;;;;;;1.85;1.50;;;;;;;;;;5045231;28;20200;-61
2023/03/13 14:40:38;;;;;;;1.70;1.60;;;;;;;;;;5045437;28;20233;-61
2023/03/13 14:43:17;;;;;;;1.55;1.48;;;;;;;;;;5046487;28;20210;-61
2023/03/13 14:45:44;;;;;;;1.60;1.50;;;;;;;;;;5043963;28;20191;-62
2023/03/13 14:48:15;;;;;;;2.78;1.80;;;;;;;;;;5045373;28;20203;-68
2023/03/13 14:50:43;;;;;;;1.55;1.40;;;;;;;;;;5042886;28;20222;-68
2023/03/13 14:53:14;;;;;;;1.73;1.60;;;;;;;;;;5048450;28;20199;-67